Time;durP1;ratioP1;P1;durP2;ratioP2;P2;SDS_P1;SDS_P2;PMS_P1;PMS_P2;Temp;Humidity;BMP_temperature;BMP_pressure;BME280_temperature;BME280_humidity;BME280_pressure;Samples;Min_cycle;Max_cycle;Signal;HPM_P1;HPM_P2
2022/08/08 00:02:11;;;;;;;11.40;5.47;;;;;;;20.37;90.68;99582.56;4813741;29;20476;-54
2022/08/08 00:05:08;;;;;;;9.40;5.00;;;;;;;20.43;90.18;99595.41;4813868;29;20308;-53
2022/08/08 00:07:52;;;;;;;9.97;5.87;;;;;;;20.43;89.68;99603.38;4814143;29;20277;-56
2022/08/08 00:10:28;;;;;;;9.90;5.70;;;;;;;20.42;90.09;99601.69;4813796;29;20299;-57
2022/08/08 00:13:10;;;;;;;9.83;5.77;;;;;;;20.44;90.43;99605.06;4813785;29;20299;-56
2022/08/08 00:15:58;;;;;;;10.13;6.27;;;;;;;20.51;90.83;99603.69;4813478;29;20355;-55
2022/08/08 00:18:40;;;;;;;13.50;5.77;;;;;;;20.56;90.98;99569.75;4827627;29;20581;-56
2022/08/08 00:21:15;;;;;;;11.90;5.17;;;;;;;20.62;90.75;99579.97;4832183;29;20295;-56
2022/08/08 00:23:58;;;;;;;11.10;5.80;;;;;;;20.40;90.54;99539.91;4831439;29;20327;-56
2022/08/08 00:26:35;;;;;;;8.30;4.83;;;;;;;20.71;90.61;99573.16;4830905;29;20303;-57
2022/08/08 00:29:14;;;;;;;9.87;4.77;;;;;;;20.90;90.78;99580.69;4828707;29;20314;-54
2022/08/08 00:32:07;;;;;;;;;;;;;;;21.10;90.73;99566.00;4831385;29;20617;-56
2022/08/08 00:35:33;;;;;;;8.73;4.60;;;;;;;21.33;90.25;99561.69;4831311;29;20239;-55
2022/08/08 00:38:33;;;;;;;8.23;4.15;;;;;;;21.51;90.00;99571.00;4813023;29;20323;-55
2022/08/08 00:42:00;;;;;;;7.30;3.40;;;;;;;21.56;88.22;99573.34;4831359;29;20055;-55
2022/08/08 00:45:00;;;;;;;7.33;2.90;;;;;;;21.58;87.19;99575.91;4831192;29;20331;-56
2022/08/08 00:48:11;;;;;;;7.77;3.50;;;;;;;21.57;87.33;99563.56;4831212;29;20366;-56
2022/08/08 00:51:39;;;;;;;5.80;3.20;;;;;;;21.50;86.38;99561.34;4831236;29;20412;-56
2022/08/08 00:54:54;;;;;;;6.83;3.53;;;;;;;21.40;86.19;99563.00;4831071;29;20459;-56
2022/08/08 00:58:13;;;;;;;6.20;2.80;;;;;;;21.35;86.53;99559.78;4822462;29;20316;-56
2022/08/08 01:00:58;;;;;;;7.38;3.42;;;;;;;21.25;86.65;99548.13;4829837;29;20348;-57
2022/08/08 01:04:14;;;;;;;4.73;2.90;;;;;;;21.14;86.82;99542.72;4827870;29;20066;-55
2022/08/08 01:07:18;;;;;;;9.07;3.17;;;;;;;21.13;87.21;99522.44;4829662;29;20292;-56
2022/08/08 01:10:34;;;;;;;6.43;2.97;;;;;;;21.15;86.92;99520.53;4827755;29;20327;-56
2022/08/08 01:13:46;;;;;;;6.23;3.33;;;;;;;21.25;87.60;99511.78;4829816;29;20595;-56
2022/08/08 01:17:11;;;;;;;6.70;3.20;;;;;;;21.44;87.07;99510.44;4829751;29;20292;-56
2022/08/08 01:20:28;;;;;;;4.70;3.07;;;;;;;21.44;86.34;99513.97;4829659;29;20533;-57
2022/08/08 01:23:44;;;;;;;3.63;2.93;;;;;;;21.36;86.24;99497.69;4828982;29;20402;-55
2022/08/08 01:27:08;;;;;;;7.10;3.80;;;;;;;21.26;86.69;99517.94;4827966;29;20303;-56
2022/08/08 01:30:11;;;;;;;7.13;3.40;;;;;;;21.16;86.73;99503.63;4829541;29;20295;-57
2022/08/08 01:33:31;;;;;;;11.30;4.90;;;;;;;21.09;87.90;99506.72;4794949;29;20326;-57
2022/08/08 01:36:59;;;;;;;12.60;5.50;;;;;;;20.91;88.89;99502.72;4828780;29;20276;-56
2022/08/08 01:39:54;;;;;;;7.37;4.10;;;;;;;20.74;90.14;99495.09;4826305;29;20372;-56
2022/08/08 01:42:34;;;;;;;8.00;4.30;;;;;;;20.66;91.38;99493.81;4825899;29;20400;-57
2022/08/08 01:45:24;;;;;;;5.70;4.50;;;;;;;20.53;92.23;99479.69;4829281;29;20454;-55
2022/08/08 01:48:05;;;;;;;8.17;3.57;;;;;;;20.46;93.07;99486.38;4827891;29;20354;-56
2022/08/08 01:51:20;;;;;;;12.93;7.97;;;;;;;20.42;93.80;99466.34;4828128;29;20294;-56
2022/08/08 01:54:30;;;;;;;18.40;12.20;;;;;;;20.38;94.24;99468.34;4830114;29;20314;-56
2022/08/08 01:57:31;;;;;;;9.30;4.57;;;;;;;20.37;94.80;99466.66;4830349;29;20515;-55
2022/08/08 02:00:26;;;;;;;8.37;4.57;;;;;;;20.39;95.05;99463.88;4821217;29;20280;-55
2022/08/08 02:03:25;;;;;;;8.67;4.93;;;;;;;20.41;95.55;99446.06;4822762;29;20299;-53
2022/08/08 02:06:26;;;;;;;9.98;4.10;;;;;;;20.37;95.74;99432.19;4820279;29;20590;-52
2022/08/08 02:09:07;;;;;;;6.70;3.83;;;;;;;20.37;95.45;99434.00;4829223;29;20061;-54
2022/08/08 02:11:48;;;;;;;5.50;3.97;;;;;;;20.35;95.35;99425.28;4830165;29;20355;-56
2022/08/08 02:14:39;;;;;;;6.73;4.63;;;;;;;20.34;95.53;99431.53;4830325;29;20350;-55
2022/08/08 02:17:33;;;;;;;8.25;4.20;;;;;;;20.34;95.66;99428.88;4829899;29;20434;-56
2022/08/08 02:20:22;;;;;;;8.03;4.10;;;;;;;20.21;96.16;99413.81;4827846;29;20354;-56
2022/08/08 02:23:22;;;;;;;10.57;4.70;;;;;;;20.25;95.81;99425.91;4818988;29;20287;-52
2022/08/08 02:26:08;;;;;;;9.25;4.70;;;;;;;20.23;96.23;99432.28;4830064;29;20322;-55
2022/08/08 02:28:49;;;;;;;8.63;3.92;;;;;;;20.28;96.33;99421.34;4823639;29;20061;-55
2022/08/08 02:31:38;;;;;;;7.03;3.70;;;;;;;20.33;96.37;99401.50;4826506;29;20058;-53
2022/08/08 02:34:52;;;;;;;6.68;3.65;;;;;;;20.45;96.13;99410.41;4825250;29;20279;-56
2022/08/08 02:38:02;;;;;;;8.43;4.33;;;;;;;20.51;96.31;99419.72;4826488;29;20471;-55
2022/08/08 02:40:49;;;;;;;7.63;3.83;;;;;;;20.52;95.94;99426.72;4826031;29;20611;-53
2022/08/08 02:43:50;;;;;;;5.60;3.43;;;;;;;20.46;95.69;99428.00;4826092;29;20299;-56
2022/08/08 02:47:09;;;;;;;5.77;3.70;;;;;;;20.35;95.40;99419.97;4826193;29;20675;-55
2022/08/08 02:50:02;;;;;;;5.30;3.57;;;;;;;20.32;96.09;99422.81;4826491;29;20296;-55
2022/08/08 02:52:49;;;;;;;7.57;3.80;;;;;;;20.25;96.12;99410.00;4826269;29;20288;-56
2022/08/08 02:55:49;;;;;;;4.83;3.50;;;;;;;20.29;96.28;99423.03;4824446;29;20302;-53
2022/08/08 02:59:28;;;;;;;8.90;4.23;;;;;;;20.30;96.58;99411.50;4825387;29;20327;-56
2022/08/08 03:03:07;;;;;;;7.60;4.00;;;;;;;20.33;96.81;99416.56;4824456;29;20337;-58
2022/08/08 03:06:22;;;;;;;5.27;4.20;;;;;;;20.33;96.79;99416.56;4796833;29;20307;-53
2022/08/08 03:09:55;;;;;;;7.47;4.30;;;;;;;20.21;96.77;99429.72;4800324;29;20303;-55
2022/08/08 03:12:56;;;;;;;8.60;4.23;;;;;;;20.10;96.92;99421.69;4825791;29;20311;-54
2022/08/08 03:16:05;;;;;;;7.23;4.00;;;;;;;20.02;97.28;99402.81;4825214;29;20299;-54
2022/08/08 03:18:47;;;;;;;7.07;4.10;;;;;;;19.95;97.92;99380.31;4825768;29;20320;-56
2022/08/08 03:21:19;;;;;;;9.70;3.80;;;;;;;19.95;98.50;99359.09;4825544;29;20303;-50
2022/08/08 03:24:11;;;;;;;7.10;3.78;;;;;;;20.00;98.67;99333.13;4825834;29;20340;-55
2022/08/08 03:26:50;;;;;;;7.77;4.30;;;;;;;19.99;98.88;99334.06;4825725;29;20095;-54
2022/08/08 03:29:26;;;;;;;7.50;4.47;;;;;;;19.91;99.13;99331.09;4826302;29;20611;-52
2022/08/08 03:35:11;;;;;;;10.67;4.10;;;;;;;19.99;99.83;99302.25;4827823;29;20712;-55
2022/08/08 03:37:45;;;;;;;10.70;4.70;;;;;;;20.04;100.00;99310.72;4829196;29;20319;-54
2022/08/08 03:40:38;;;;;;;9.70;4.47;;;;;;;20.03;99.94;99307.22;4829000;29;21011;-56
2022/08/08 03:43:11;;;;;;;6.50;4.23;;;;;;;19.98;99.83;99289.94;4828856;29;20853;-56
2022/08/08 03:45:49;;;;;;;9.13;4.70;;;;;;;19.91;99.88;99272.78;4829082;29;20384;-53
2022/08/08 03:48:36;;;;;;;8.45;4.45;;;;;;;20.07;100.00;99289.31;4828874;29;20360;-55
2022/08/08 03:51:28;;;;;;;8.80;3.93;;;;;;;20.09;100.00;99271.47;4828676;29;20122;-55
2022/08/08 03:54:19;;;;;;;8.73;3.70;;;;;;;20.09;100.00;99266.16;4828833;29;20564;-53
2022/08/08 03:57:14;;;;;;;7.63;4.00;;;;;;;20.03;99.87;99240.94;4828267;29;20303;-53
2022/08/08 04:00:11;;;;;;;8.07;4.10;;;;;;;19.98;100.00;99226.31;4828514;29;20313;-54
2022/08/08 04:02:56;;;;;;;8.23;4.40;;;;;;;19.75;99.96;99177.59;4828798;29;20288;-56
2022/08/08 04:05:29;;;;;;;8.93;4.70;;;;;;;19.88;99.90;99182.88;4828267;29;20501;-54
2022/08/08 04:08:01;;;;;;;7.17;4.30;;;;;;;20.08;99.97;99184.91;4828467;29;20306;-55
2022/08/08 04:10:33;;;;;;;6.97;4.30;;;;;;;20.09;99.92;99170.69;4828392;29;20299;-56
2022/08/08 04:13:06;;;;;;;7.87;4.50;;;;;;;20.14;99.95;99167.69;4828640;29;20299;-52
2022/08/08 04:15:47;;;;;;;10.50;4.97;;;;;;;20.19;99.85;99171.72;4828320;29;20280;-56
2022/08/08 04:18:34;;;;;;;8.57;4.70;;;;;;;20.17;99.89;99168.34;4828361;29;20292;-55
2022/08/08 04:21:17;;;;;;;10.57;4.90;;;;;;;20.25;99.96;99176.56;4828299;29;20300;-55
2022/08/08 04:23:52;;;;;;;9.87;4.90;;;;;;;20.25;100.00;99171.25;4828735;29;20303;-55
2022/08/08 04:26:42;;;;;;;11.20;4.80;;;;;;;20.26;100.00;99151.72;4828116;29;20322;-52
2022/08/08 04:29:29;;;;;;;7.40;4.50;;;;;;;20.26;99.97;99135.81;4828192;29;20291;-56
2022/08/08 04:32:07;;;;;;;9.73;4.93;;;;;;;20.35;100.00;99138.75;4828168;29;20352;-56
2022/08/08 04:34:39;;;;;;;8.50;4.27;;;;;;;20.43;100.00;99139.88;4827898;29;20051;-55
2022/08/08 04:37:24;;;;;;;6.47;4.27;;;;;;;20.34;100.00;99127.28;4828029;29;20291;-56
2022/08/08 04:40:02;;;;;;;8.97;4.23;;;;;;;20.43;99.79;99157.59;4828058;29;20650;-56
2022/08/08 04:42:39;;;;;;;8.53;4.33;;;;;;;20.44;99.61;99146.00;4827165;29;20295;-57
2022/08/08 04:45:28;;;;;;;8.77;4.60;;;;;;;20.46;99.74;99147.59;4827741;29;20067;-56
2022/08/08 04:47:59;;;;;;;8.73;4.70;;;;;;;20.44;99.47;99153.97;4827810;29;20331;-52
2022/08/08 04:50:30;;;;;;;14.90;4.73;;;;;;;20.36;99.59;99132.47;4828066;29;20461;-53
2022/08/08 04:53:07;;;;;;;9.97;4.23;;;;;;;20.47;99.69;99138.69;4827484;29;20295;-54
2022/08/08 04:55:58;;;;;;;9.03;4.40;;;;;;;20.63;99.91;99138.38;4827776;29;20330;-57
2022/08/08 04:58:29;;;;;;;9.80;4.60;;;;;;;20.84;99.57;99140.38;4827682;29;20288;-56
2022/08/08 05:01:03;;;;;;;7.17;4.17;;;;;;;21.05;99.08;99128.09;4827609;29;20452;-57
2022/08/08 05:03:39;;;;;;;11.00;4.50;;;;;;;21.19;98.71;99112.88;4827335;29;20303;-56
2022/08/08 05:06:30;;;;;;;8.47;4.77;;;;;;;21.32;98.01;99097.69;4827463;29;20319;-58
2022/08/08 05:09:00;;;;;;;10.63;4.70;;;;;;;21.38;97.79;99081.22;4827392;29;20367;-58
2022/08/08 05:11:34;;;;;;;10.57;4.43;;;;;;;21.45;97.68;99061.22;4827679;29;20310;-56
2022/08/08 05:14:10;;;;;;;6.93;4.90;;;;;;;21.35;96.91;99041.63;4827666;29;20303;-53
2022/08/08 05:16:45;;;;;;;9.07;4.77;;;;;;;21.25;97.43;99006.16;4826347;29;20419;-55
2022/08/08 05:19:29;;;;;;;7.80;4.77;;;;;;;21.30;98.04;99046.47;4827281;29;20345;-56
2022/08/08 05:22:20;;;;;;;9.90;5.43;;;;;;;21.20;98.28;99043.69;4826924;29;20375;-56
2022/08/08 05:24:51;;;;;;;11.60;5.97;;;;;;;21.14;98.69;99056.63;4827441;29;20306;-59
2022/08/08 05:27:22;;;;;;;8.23;4.90;;;;;;;21.05;99.08;99056.38;4827326;29;20323;-59
2022/08/08 05:29:52;;;;;;;10.50;5.07;;;;;;;21.06;99.26;99039.47;4827253;29;20632;-59
2022/08/08 05:32:27;;;;;;;8.77;5.60;;;;;;;21.18;100.00;99026.19;4827541;29;20295;-59
2022/08/08 05:35:05;;;;;;;9.73;5.43;;;;;;;21.21;100.00;99002.03;4827182;29;20295;-59
2022/08/08 05:37:40;;;;;;;9.90;5.70;;;;;;;21.48;100.00;99018.44;4826638;29;20304;-60
2022/08/08 05:40:23;;;;;;;8.50;5.90;;;;;;;21.37;100.00;98994.53;4826943;29;20307;-60
2022/08/08 05:43:03;;;;;;;11.37;6.43;;;;;;;21.48;99.98;99030.88;4825591;29;20351;-58
2022/08/08 05:45:57;;;;;;;11.83;5.90;;;;;;;21.38;99.82;99048.50;4826835;29;20318;-59
2022/08/08 05:48:35;;;;;;;15.65;7.00;;;;;;;21.22;99.79;99054.22;4825929;29;20283;-58
2022/08/08 05:51:07;;;;;;;9.13;6.23;;;;;;;21.09;99.99;99044.56;4826417;29;20783;-58
2022/08/08 05:53:45;;;;;;;12.40;5.90;;;;;;;20.99;99.97;99038.28;4826225;29;20384;-59
2022/08/08 05:56:41;;;;;;;11.40;6.33;;;;;;;20.86;100.00;99042.84;4826112;29;20287;-58
2022/08/08 05:59:19;;;;;;;12.77;5.90;;;;;;;20.76;100.00;99042.72;4826661;29;20307;-58
2022/08/08 06:05:09;;;;;;;7.63;5.77;;;;;;;20.44;100.00;99042.53;4824865;29;20368;-58
2022/08/08 06:08:01;;;;;;;9.57;5.30;;;;;;;20.34;100.00;99015.03;4825240;29;20999;-58
2022/08/08 06:10:50;;;;;;;10.07;5.50;;;;;;;20.34;100.00;99030.94;4825026;29;20319;-57
2022/08/08 06:13:21;;;;;;;9.57;5.70;;;;;;;20.30;100.00;99024.19;4825591;29;20054;-58
2022/08/08 06:15:55;;;;;;;15.63;5.87;;;;;;;20.16;100.00;99007.50;4826999;29;20283;-59
2022/08/08 06:18:28;;;;;;;13.50;6.30;;;;;;;20.22;100.00;99020.31;4826602;29;20290;-55
2022/08/08 06:21:02;;;;;;;19.63;5.87;;;;;;;20.03;100.00;98990.84;4826575;29;20303;-56
2022/08/08 06:23:53;;;;;;;11.77;5.80;;;;;;;20.21;100.00;99021.25;4825820;29;20359;-56
2022/08/08 06:26:41;;;;;;;13.70;5.87;;;;;;;20.17;100.00;99011.88;4825370;29;20375;-56
2022/08/08 06:29:30;;;;;;;16.03;6.20;;;;;;;20.19;100.00;99002.00;4826446;29;20312;-56
2022/08/08 06:32:28;;;;;;;13.40;5.40;;;;;;;20.21;100.00;98993.91;4826347;29;20283;-56
2022/08/08 06:35:01;;;;;;;14.18;5.68;;;;;;;20.26;100.00;98976.66;4826311;29;20466;-55
2022/08/08 06:37:58;;;;;;;9.77;5.00;;;;;;;20.34;100.00;98959.31;4826505;29;20057;-56
2022/08/08 06:40:32;;;;;;;7.17;5.10;;;;;;;20.50;100.00;98962.47;4826165;29;20378;-55
2022/08/08 06:43:07;;;;;;;11.43;5.40;;;;;;;20.60;100.00;98968.78;4826308;29;20298;-55
2022/08/08 06:45:39;;;;;;;10.73;5.23;;;;;;;20.60;100.00;98974.09;4826294;29;20330;-55
2022/08/08 06:48:09;;;;;;;13.30;7.13;;;;;;;20.62;100.00;98966.84;4826192;29;20323;-56
2022/08/08 06:50:43;;;;;;;9.97;5.60;;;;;;;20.65;100.00;98955.16;4826223;29;20295;-56
2022/08/08 06:53:18;;;;;;;12.57;5.27;;;;;;;20.66;100.00;98931.13;4825726;29;20294;-56
2022/08/08 06:55:49;;;;;;;10.27;4.93;;;;;;;20.57;100.00;98921.25;4826561;29;20343;-56
2022/08/08 06:58:32;;;;;;;10.47;4.70;;;;;;;20.63;100.00;98931.38;4826104;29;20288;-56
2022/08/08 07:01:04;;;;;;;8.23;4.50;;;;;;;20.57;100.00;98921.25;4826011;29;20351;-56
2022/08/08 07:03:57;;;;;;;8.20;4.77;;;;;;;20.57;100.00;98913.31;4826340;29;20286;-55
2022/08/08 07:06:55;;;;;;;8.33;4.90;;;;;;;20.52;100.00;98896.88;4829031;29;20911;-56
2022/08/08 07:09:34;;;;;;;6.40;4.10;;;;;;;20.52;100.00;98893.34;4828851;29;20291;-56
2022/08/08 07:12:27;;;;;;;6.00;3.70;;;;;;;20.54;100.00;98888.78;4829698;29;20291;-55
2022/08/08 07:15:05;;;;;;;7.90;4.17;;;;;;;20.53;100.00;98881.78;4828635;29;20129;-56
2022/08/08 07:18:00;;;;;;;4.33;2.87;;;;;;;20.48;100.00;98879.50;4829575;29;20287;-56
2022/08/08 07:20:55;;;;;;;4.07;2.40;;;;;;;20.42;100.00;98858.78;4828395;29;20318;-57
2022/08/08 07:23:32;;;;;;;4.10;2.43;;;;;;;20.42;100.00;98853.47;4829594;29;20331;-56
2022/08/08 07:26:27;;;;;;;2.87;2.00;;;;;;;20.42;100.00;98853.47;4829132;29;20294;-56
2022/08/08 07:29:05;;;;;;;2.40;1.60;;;;;;;20.38;100.00;98852.00;4829119;29;20337;-56
2022/08/08 07:31:42;;;;;;;2.83;1.47;;;;;;;20.34;100.00;98855.84;4828794;29;20379;-56
2022/08/08 07:34:18;;;;;;;4.20;1.70;;;;;;;20.28;100.00;98840.44;4829080;29;20291;-56
2022/08/08 07:37:02;;;;;;;3.47;1.70;;;;;;;20.26;100.00;98836.09;4828589;29;20556;-56
2022/08/08 07:39:43;;;;;;;3.73;1.97;;;;;;;20.09;100.00;98811.88;4828447;29;20307;-56
2022/08/08 07:42:31;;;;;;;4.10;1.90;;;;;;;20.19;100.00;98832.25;4829034;29;20685;-55
2022/08/08 07:45:03;;;;;;;3.30;1.80;;;;;;;20.20;100.00;98823.31;4827933;29;20307;-56
2022/08/08 07:47:34;;;;;;;5.20;2.07;;;;;;;20.23;100.00;98815.13;4828839;29;20395;-55
2022/08/08 07:50:09;;;;;;;2.37;1.70;;;;;;;20.28;100.00;98803.31;4828824;29;20292;-56
2022/08/08 07:52:51;;;;;;;2.40;1.83;;;;;;;20.34;100.00;98786.88;4828899;29;20318;-57
2022/08/08 07:55:25;;;;;;;4.03;2.60;;;;;;;20.42;100.00;98789.78;4828759;29;20474;-54
2022/08/08 07:58:14;;;;;;;3.60;2.30;;;;;;;20.45;100.00;98777.09;4829247;29;20079;-55
2022/08/08 08:00:51;;;;;;;4.77;2.60;;;;;;;20.51;100.00;98773.09;4828614;29;20349;-57
2022/08/08 08:03:31;;;;;;;3.07;1.80;;;;;;;20.56;100.00;98786.88;4828610;29;20844;-57
2022/08/08 08:06:13;;;;;;;4.18;1.65;;;;;;;20.59;100.00;98786.66;4825858;29;20353;-56
2022/08/08 08:08:49;;;;;;;3.43;1.60;;;;;;;20.68;100.00;98791.19;4828098;29;20050;-57
2022/08/08 08:11:23;;;;;;;4.97;1.30;;;;;;;20.56;100.00;98760.34;4828403;29;20819;-56
2022/08/08 08:14:19;;;;;;;1.60;1.07;;;;;;;20.84;100.00;98795.25;4828706;29;20284;-56
2022/08/08 08:16:50;;;;;;;1.57;1.10;;;;;;;20.97;100.00;98803.06;4826560;29;20354;-56
2022/08/08 08:19:23;;;;;;;3.13;1.10;;;;;;;20.98;100.00;98794.94;4828053;29;20351;-56
2022/08/08 08:22:00;;;;;;;2.93;1.40;;;;;;;21.00;100.00;98790.34;4827507;29;20304;-54
2022/08/08 08:24:37;;;;;;;4.13;1.40;;;;;;;20.98;100.00;98792.28;4827193;29;20632;-56
2022/08/08 08:27:12;;;;;;;1.80;1.50;;;;;;;20.97;100.00;98790.63;4827927;29;20303;-57
2022/08/08 08:29:48;;;;;;;4.83;1.73;;;;;;;20.94;100.00;98790.84;4828061;29;20307;-56
2022/08/08 08:32:22;;;;;;;2.27;1.40;;;;;;;20.89;100.00;98787.72;4828314;29;20300;-56
2022/08/08 08:35:11;;;;;;;2.77;1.57;;;;;;;20.83;100.00;98777.63;4830194;29;20330;-57
2022/08/08 08:37:44;;;;;;;2.63;1.20;;;;;;;20.80;100.00;98785.84;4828256;29;20561;-56
2022/08/08 08:40:39;;;;;;;2.73;1.40;;;;;;;20.76;100.00;98787.06;4828100;29;20288;-56
2022/08/08 08:43:12;;;;;;;2.60;1.57;;;;;;;20.72;100.00;98790.94;4825785;29;20307;-55
2022/08/08 08:45:49;;;;;;;3.13;1.63;;;;;;;20.67;100.00;98783.38;4828099;29;20295;-56
2022/08/08 08:48:27;;;;;;;4.27;1.73;;;;;;;20.62;100.00;98786.41;4828009;29;20311;-57
2022/08/08 08:51:01;;;;;;;7.27;2.03;;;;;;;20.60;100.00;98769.75;4827886;29;20334;-57
2022/08/08 08:53:37;;;;;;;4.87;2.30;;;;;;;20.57;100.00;98775.31;4827049;29;20311;-56
2022/08/08 08:56:29;;;;;;;5.10;2.00;;;;;;;20.52;100.00;98764.19;4827535;29;20334;-57
2022/08/08 08:59:03;;;;;;;5.57;2.10;;;;;;;20.49;100.00;98775.03;4827669;29;20363;-56
2022/08/08 09:01:44;;;;;;;5.07;2.10;;;;;;;20.46;100.00;98759.38;4827777;29;20276;-57
2022/08/08 09:04:20;;;;;;;10.43;2.17;;;;;;;20.33;100.00;98726.84;4826951;29;20303;-54
2022/08/08 09:07:04;;;;;;;4.67;2.13;;;;;;;20.40;100.00;98751.94;4827139;29;20369;-55
2022/08/08 09:09:43;;;;;;;4.80;2.30;;;;;;;20.38;100.00;98751.19;4827161;29;20306;-56
2022/08/08 09:12:19;;;;;;;4.90;2.53;;;;;;;20.35;100.00;98741.69;4827299;29;20315;-56
2022/08/08 09:14:54;;;;;;;5.30;2.50;;;;;;;20.34;100.00;98739.16;4827506;29;20724;-56
2022/08/08 09:17:28;;;;;;;5.17;2.30;;;;;;;20.32;100.00;98733.13;4827213;29;20296;-56
2022/08/08 09:20:20;;;;;;;8.77;3.60;;;;;;;20.30;100.00;98735.06;4827159;29;20307;-56
2022/08/08 09:23:12;;;;;;;13.17;4.10;;;;;;;20.25;100.00;98736.28;4826550;29;21012;-56
2022/08/08 09:25:55;;;;;;;15.07;4.93;;;;;;;20.12;100.00;98724.97;4826849;29;20454;-56
2022/08/08 09:28:38;;;;;;;18.53;6.57;;;;;;;20.17;100.00;98749.31;4826527;29;20362;-56
2022/08/08 09:31:15;;;;;;;18.00;6.22;;;;;;;20.12;100.00;98740.03;4826808;29;20311;-56
2022/08/08 09:33:52;;;;;;;23.67;7.20;;;;;;;20.09;100.00;98734.97;4827141;29;20082;-56
2022/08/08 09:36:46;;;;;;;23.67;7.67;;;;;;;20.03;100.00;98736.31;4826892;29;20460;-54
2022/08/08 09:39:49;;;;;;;24.40;8.40;;;;;;;19.96;100.00;98720.03;4826716;29;20588;-55
2022/08/08 09:42:31;;;;;;;23.67;8.27;;;;;;;19.91;100.00;98724.03;4827038;29;20333;-56
2022/08/08 09:45:18;;;;;;;24.10;8.67;;;;;;;19.87;100.00;98730.53;4826915;29;20279;-57
2022/08/08 09:48:11;;;;;;;28.70;8.23;;;;;;;19.84;100.00;98726.31;4826742;29;20386;-56
2022/08/08 09:50:54;;;;;;;30.73;8.30;;;;;;;19.85;100.00;98737.78;4826667;29;20312;-54
2022/08/08 09:53:31;;;;;;;29.97;7.43;;;;;;;19.83;100.00;98730.78;4825980;29;20584;-56
2022/08/08 09:56:22;;;;;;;22.83;6.67;;;;;;;19.79;100.00;98729.34;4826364;29;20379;-55
2022/08/08 09:59:03;;;;;;;25.83;6.50;;;;;;;19.78;100.00;98716.22;4826331;29;20307;-56
2022/08/08 10:01:57;;;;;;;22.07;6.87;;;;;;;19.82;100.00;98729.09;4826579;29;20344;-57
2022/08/08 10:04:44;;;;;;;22.42;6.90;;;;;;;19.79;100.00;98724.06;4826615;29;20295;-54
2022/08/08 10:07:19;;;;;;;24.00;7.27;;;;;;;19.78;100.00;98738.25;4826529;29;20369;-54
2022/08/08 10:09:52;;;;;;;29.30;8.03;;;;;;;19.73;100.00;98734.28;4826405;29;20592;-55
2022/08/08 10:12:38;;;;;;;28.63;8.27;;;;;;;19.73;100.00;98737.78;4826745;29;20334;-56
2022/08/08 10:15:27;;;;;;;29.77;9.10;;;;;;;19.73;100.00;98744.88;4826279;29;20461;-57
2022/08/08 10:17:58;;;;;;;23.33;8.20;;;;;;;19.70;100.00;98745.97;4826512;29;20644;-56
2022/08/08 10:20:43;;;;;;;26.30;8.43;;;;;;;19.61;100.00;98725.44;4826402;29;20349;-56
2022/08/08 10:23:41;;;;;;;26.83;9.23;;;;;;;19.71;100.00;98731.75;4826171;29;20302;-56
2022/08/08 10:26:23;;;;;;;35.30;8.53;;;;;;;19.70;100.00;98730.06;4826370;29;20129;-56
2022/08/08 10:29:06;;;;;;;25.80;8.47;;;;;;;19.66;100.00;98712.69;4826210;29;20323;-55
2022/08/08 10:34:30;;;;;;;27.63;9.07;;;;;;;19.76;100.00;98726.91;4826137;29;20303;-57
2022/08/08 10:37:03;;;;;;;21.77;8.53;;;;;;;19.78;100.00;98732.94;4826479;29;20295;-58
2022/08/08 10:39:45;;;;;;;24.60;9.43;;;;;;;19.79;100.00;98737.31;4825814;29;20296;-57
2022/08/08 10:42:25;;;;;;;30.83;10.38;;;;;;;19.71;100.00;98717.66;4826173;29;20441;-55
2022/08/08 10:45:02;;;;;;;50.40;11.20;;;;;;;19.52;100.00;98689.06;4825897;29;20050;-57
2022/08/08 10:47:39;;;;;;;54.97;10.93;;;;;;;19.72;100.00;98735.22;4825919;29;20342;-56
2022/08/08 10:50:17;;;;;;;81.43;11.07;;;;;;;19.69;100.00;98735.47;4826244;29;20339;-55
2022/08/08 10:53:01;;;;;;;69.70;10.93;;;;;;;19.70;100.00;98734.53;4826014;29;20323;-56
2022/08/08 10:55:41;;;;;;;57.47;10.07;;;;;;;19.69;100.00;98744.25;4825833;29;20363;-57
2022/08/08 10:58:16;;;;;;;78.87;14.33;;;;;;;19.70;100.00;98739.84;4826028;29;20296;-57
2022/08/08 11:00:48;;;;;;;49.50;10.97;;;;;;;19.54;100.00;98713.63;4825429;29;20287;-58
2022/08/08 11:03:43;;;;;;;49.30;11.10;;;;;;;19.70;100.00;98745.13;4825643;29;20351;-54
2022/08/08 11:06:33;;;;;;;39.10;11.32;;;;;;;19.67;100.00;98734.72;4825949;29;20296;-57
2022/08/08 11:09:12;;;;;;;37.97;10.57;;;;;;;19.68;100.00;98747.88;4825721;29;20070;-58
2022/08/08 11:11:54;;;;;;;26.27;9.53;;;;;;;19.69;100.00;98757.50;4826070;29;20058;-55
2022/08/08 11:14:53;;;;;;;32.00;9.77;;;;;;;19.70;100.00;98761.88;4826121;29;20288;-57
2022/08/08 11:17:26;;;;;;;32.20;11.97;;;;;;;19.69;100.00;98757.50;4826408;29;20291;-56
2022/08/08 11:20:18;;;;;;;23.97;10.23;;;;;;;19.63;100.00;98744.72;4825861;29;20283;-56
2022/08/08 11:22:58;;;;;;;37.73;11.60;;;;;;;19.67;100.00;98756.81;4825651;29;20295;-56
2022/08/08 11:25:35;;;;;;;31.77;10.10;;;;;;;19.65;100.00;98753.41;4826139;29;20319;-56
2022/08/08 11:28:29;;;;;;;28.43;10.73;;;;;;;19.67;100.00;98747.97;4825524;29;20298;-56
2022/08/08 11:31:02;;;;;;;22.47;9.70;;;;;;;19.44;100.00;98707.38;4825943;29;20306;-55
2022/08/08 11:33:39;;;;;;;23.63;9.77;;;;;;;19.70;100.00;98751.28;4825453;29;20560;-56
2022/08/08 11:36:27;;;;;;;23.40;10.20;;;;;;;19.72;100.00;98749.34;4825621;29;20318;-56
2022/08/08 11:38:59;;;;;;;24.70;9.83;;;;;;;19.40;100.00;98689.09;4825497;29;20286;-56
2022/08/08 11:41:32;;;;;;;23.80;9.17;;;;;;;19.77;100.00;98741.88;4825774;29;20280;-56
2022/08/08 11:44:05;;;;;;;24.97;7.87;;;;;;;19.80;100.00;98744.28;4825911;29;20288;-54
2022/08/08 11:46:37;;;;;;;21.80;8.47;;;;;;;19.82;100.00;98745.00;4825725;29;20543;-55
2022/08/08 11:49:11;;;;;;;16.47;7.60;;;;;;;19.89;100.00;98749.81;4825216;29;20746;-56
2022/08/08 11:51:46;;;;;;;20.47;7.37;;;;;;;19.90;100.00;98746.22;4827316;29;20334;-56
2022/08/08 11:54:32;;;;;;;19.53;6.90;;;;;;;19.92;100.00;98738.97;4828454;29;20291;-57
2022/08/08 11:57:14;;;;;;;16.80;6.13;;;;;;;19.67;100.00;98698.53;4828722;29;20303;-55
2022/08/08 11:59:56;;;;;;;14.87;5.93;;;;;;;20.01;100.00;98741.72;4828638;29;20291;-54
2022/08/08 12:02:45;;;;;;;19.97;6.87;;;;;;;20.03;100.00;98731.00;4828820;29;20283;-56
2022/08/08 12:05:16;;;;;;;12.93;6.17;;;;;;;19.94;100.00;98721.97;4828569;29;20291;-55
2022/08/08 12:07:53;;;;;;;16.73;5.50;;;;;;;20.10;100.00;98740.16;4828300;29;20575;-56
2022/08/08 12:10:27;;;;;;;13.73;5.77;;;;;;;19.96;100.00;98719.19;4827371;29;20477;-56
2022/08/08 12:13:05;;;;;;;15.50;6.57;;;;;;;20.04;100.00;98722.94;4828291;29;20286;-55
2022/08/08 12:15:46;;;;;;;17.67;6.20;;;;;;;20.07;100.00;98737.75;4828421;29;20339;-56
2022/08/08 12:18:20;;;;;;;19.37;6.10;;;;;;;20.10;100.00;98747.28;4828412;29;20359;-55
2022/08/08 12:20:55;;;;;;;16.57;6.03;;;;;;;20.08;100.00;98750.03;4826325;29;20307;-56
2022/08/08 12:23:29;;;;;;;17.73;6.80;;;;;;;20.11;100.00;98749.78;4827989;29;20310;-56
2022/08/08 12:26:13;;;;;;;24.13;6.53;;;;;;;20.12;100.00;98751.50;4828363;29;20296;-56
2022/08/08 12:28:58;;;;;;;20.00;6.57;;;;;;;20.12;100.00;98772.72;4827906;29;20658;-56
2022/08/08 12:31:35;;;;;;;13.50;5.87;;;;;;;20.08;100.00;98760.66;4827916;29;20294;-56
2022/08/08 12:34:37;;;;;;;17.73;4.93;;;;;;;20.11;100.00;98768.34;4828173;29;20338;-56
2022/08/08 12:37:10;;;;;;;14.70;5.03;;;;;;;20.12;100.00;98767.41;4827849;29;20359;-55
2022/08/08 12:39:41;;;;;;;18.63;5.20;;;;;;;20.12;100.00;98772.72;4828259;29;20288;-56
2022/08/08 12:42:30;;;;;;;14.67;5.30;;;;;;;20.10;100.00;98757.88;4827786;29;20380;-57
2022/08/08 12:45:16;;;;;;;12.67;5.53;;;;;;;20.11;100.00;98760.41;4827927;29;20292;-56
2022/08/08 12:48:18;;;;;;;12.87;5.80;;;;;;;20.12;100.00;98756.81;4827797;29;20329;-55
2022/08/08 12:51:19;;;;;;;15.40;5.70;;;;;;;20.12;100.00;98762.09;4827717;29;20315;-54
2022/08/08 12:53:57;;;;;;;18.80;6.17;;;;;;;20.11;100.00;98749.78;4827464;29;20292;-55
2022/08/08 12:56:35;;;;;;;19.60;6.40;;;;;;;20.11;100.00;98736.53;4827357;29;20350;-55
2022/08/08 12:59:16;;;;;;;22.43;6.60;;;;;;;20.06;100.00;98733.41;4827744;29;20310;-57